Time;durP1;ratioP1;P1;durP2;ratioP2;P2;SDS_P1;SDS_P2;PMS_P1;PMS_P2;Temp;Humidity;BMP_temperature;BMP_pressure;BME280_temperature;BME280_humidity;BME280_pressure;Samples;Min_cycle;Max_cycle;Signal;HPM_P1;HPM_P2
2020/12/12 00:02:03;;;;;;;26.05;14.40;;;;;;;;;;4980426;28;20250;-80
2020/12/12 00:04:30;;;;;;;27.20;14.65;;;;;;;;;;5014501;28;20111;-79
2020/12/12 00:06:58;;;;;;;27.15;14.32;;;;;;;;;;5012891;28;20053;-80
2020/12/12 00:09:25;;;;;;;25.75;14.05;;;;;;;;;;4996386;28;20042;-81
2020/12/12 00:11:51;;;;;;;25.42;14.68;;;;;;;;;;4990576;28;20050;-80
2020/12/12 00:14:18;;;;;;;29.90;15.05;;;;;;;;;;5023416;28;20072;-80
2020/12/12 00:16:46;;;;;;;26.75;14.55;;;;;;;;;;5003159;28;20048;-79
2020/12/12 00:19:13;;;;;;;27.70;15.20;;;;;;;;;;5001329;28;20053;-80
2020/12/12 00:21:40;;;;;;;27.50;14.57;;;;;;;;;;5019399;28;20400;-80
2020/12/12 00:24:06;;;;;;;23.48;13.88;;;;;;;;;;4999096;28;20535;-80
2020/12/12 00:26:33;;;;;;;27.77;14.30;;;;;;;;;;4998756;28;20041;-79
2020/12/12 00:29:00;;;;;;;27.42;15.25;;;;;;;;;;4998578;28;20685;-79
2020/12/12 00:31:27;;;;;;;28.90;14.75;;;;;;;;;;4998706;28;20140;-80
2020/12/12 00:33:55;;;;;;;27.92;14.70;;;;;;;;;;5015128;28;20050;-78
2020/12/12 00:36:22;;;;;;;25.92;13.73;;;;;;;;;;5014879;28;20053;-79
2020/12/12 00:38:48;;;;;;;25.95;14.23;;;;;;;;;;5012087;28;20057;-79
2020/12/12 00:41:15;;;;;;;28.05;14.98;;;;;;;;;;4997854;28;20042;-80
2020/12/12 00:43:41;;;;;;;26.15;14.68;;;;;;;;;;5011777;28;20041;-79
2020/12/12 00:46:08;;;;;;;27.70;15.70;;;;;;;;;;5012745;28;20048;-79
2020/12/12 00:48:35;;;;;;;27.65;15.35;;;;;;;;;;4995595;28;20046;-80
2020/12/12 00:51:03;;;;;;;27.10;15.02;;;;;;;;;;5014408;28;20581;-79
2020/12/12 00:53:33;;;;;;;31.33;16.33;;;;;;;;;;5010512;28;20053;-79
2020/12/12 00:56:00;;;;;;;30.35;15.48;;;;;;;;;;4995799;28;20500;-79
2020/12/12 00:58:26;;;;;;;29.90;16.27;;;;;;;;;;5012915;28;20041;-80
2020/12/12 01:00:53;;;;;;;28.23;15.93;;;;;;;;;;5012439;28;20042;-77
2020/12/12 01:03:19;;;;;;;28.30;15.98;;;;;;;;;;4995756;28;20064;-81
2020/12/12 01:05:46;;;;;;;28.80;15.70;;;;;;;;;;4996514;28;20066;-80
2020/12/12 01:08:12;;;;;;;27.55;15.68;;;;;;;;;;4978839;28;20042;-77
2020/12/12 01:10:40;;;;;;;28.67;16.55;;;;;;;;;;4997776;28;20042;-78
2020/12/12 01:13:07;;;;;;;29.17;15.85;;;;;;;;;;5013171;28;20070;-79
2020/12/12 01:15:34;;;;;;;27.95;16.10;;;;;;;;;;5011870;28;20050;-78
2020/12/12 01:18:01;;;;;;;28.08;15.43;;;;;;;;;;4996401;28;20089;-79
2020/12/12 01:20:29;;;;;;;25.55;14.73;;;;;;;;;;4999602;28;20041;-78
2020/12/12 01:22:56;;;;;;;30.50;16.10;;;;;;;;;;5015609;28;20108;-78
2020/12/12 01:25:23;;;;;;;26.92;15.05;;;;;;;;;;5000078;28;20074;-78
2020/12/12 01:27:50;;;;;;;27.52;15.60;;;;;;;;;;5001679;28;20129;-80
2020/12/12 01:30:17;;;;;;;27.15;14.88;;;;;;;;;;5018490;28;20048;-80
2020/12/12 01:32:45;;;;;;;27.70;16.08;;;;;;;;;;5001246;28;20053;-81
2020/12/12 01:35:13;;;;;;;28.98;15.38;;;;;;;;;;4968652;28;20053;-79
2020/12/12 01:37:43;;;;;;;28.75;15.60;;;;;;;;;;4999790;28;20597;-78
2020/12/12 01:40:13;;;;;;;27.30;15.48;;;;;;;;;;4984386;28;20088;-79
2020/12/12 01:42:43;;;;;;;24.75;14.73;;;;;;;;;;4999671;28;20082;-80
2020/12/12 01:45:10;;;;;;;29.17;15.57;;;;;;;;;;4999550;28;20104;-79
2020/12/12 01:47:37;;;;;;;29.88;15.65;;;;;;;;;;4983284;28;20042;-79
2020/12/12 01:50:05;;;;;;;31.05;16.90;;;;;;;;;;4983934;28;20038;-79
2020/12/12 01:52:33;;;;;;;25.65;15.35;;;;;;;;;;4999442;28;20054;-78
2020/12/12 01:55:02;;;;;;;31.00;16.38;;;;;;;;;;4983557;28;20042;-79
2020/12/12 01:57:30;;;;;;;29.52;16.10;;;;;;;;;;4984076;28;20045;-78
2020/12/12 01:59:57;;;;;;;31.30;16.83;;;;;;;;;;4985066;28;20050;-79
2020/12/12 02:02:25;;;;;;;30.08;16.23;;;;;;;;;;5018042;28;20042;-79
2020/12/12 02:04:54;;;;;;;30.27;16.75;;;;;;;;;;5000857;28;20089;-79
2020/12/12 02:07:22;;;;;;;29.20;15.73;;;;;;;;;;4985169;28;20290;-78
2020/12/12 02:09:49;;;;;;;27.42;16.25;;;;;;;;;;4999752;28;20048;-81
2020/12/12 02:12:17;;;;;;;28.10;15.30;;;;;;;;;;4984904;28;20077;-80
2020/12/12 02:14:44;;;;;;;26.10;15.13;;;;;;;;;;4984655;28;20052;-79
2020/12/12 02:17:12;;;;;;;25.90;15.20;;;;;;;;;;5000708;28;20046;-77
2020/12/12 02:19:39;;;;;;;29.67;16.45;;;;;;;;;;5000823;28;20052;-79
2020/12/12 02:22:06;;;;;;;27.75;14.88;;;;;;;;;;5000736;28;20054;-79
2020/12/12 02:24:33;;;;;;;29.17;14.68;;;;;;;;;;5000049;28;20052;-80
2020/12/12 02:27:01;;;;;;;23.50;14.23;;;;;;;;;;4985029;28;20527;-80
2020/12/12 02:29:40;;;;;;;27.48;14.63;;;;;;;;;;4985511;28;20042;-80
2020/12/12 02:32:07;;;;;;;23.73;13.65;;;;;;;;;;4986939;28;20050;-80
2020/12/12 02:34:36;;;;;;;24.98;13.93;;;;;;;;;;5000520;28;20046;-79
2020/12/12 02:37:03;;;;;;;23.58;13.63;;;;;;;;;;4985554;28;20524;-80
2020/12/12 02:39:30;;;;;;;22.55;12.98;;;;;;;;;;5015658;28;20058;-80
2020/12/12 02:41:57;;;;;;;20.27;12.18;;;;;;;;;;5018483;28;20128;-80
2020/12/12 02:44:26;;;;;;;24.90;12.98;;;;;;;;;;5017244;28;20042;-82
2020/12/12 02:46:53;;;;;;;21.20;11.55;;;;;;;;;;4999370;28;20042;-81
2020/12/12 02:49:21;;;;;;;19.38;10.63;;;;;;;;;;5000179;28;20042;-80
2020/12/12 02:51:49;;;;;;;22.33;10.88;;;;;;;;;;5017337;28;20081;-80
2020/12/12 02:54:18;;;;;;;18.33;10.77;;;;;;;;;;4997793;28;20042;-80
2020/12/12 02:56:45;;;;;;;20.92;10.52;;;;;;;;;;4999801;28;20133;-80
2020/12/12 02:59:13;;;;;;;19.67;10.70;;;;;;;;;;5017822;28;20679;-79
2020/12/12 03:01:43;;;;;;;18.48;10.73;;;;;;;;;;4999887;28;20423;-80
2020/12/12 03:04:11;;;;;;;19.08;10.32;;;;;;;;;;4999580;28;20042;-79
2020/12/12 03:06:44;;;;;;;20.73;10.55;;;;;;;;;;4999680;28;20493;-80
2020/12/12 03:09:11;;;;;;;19.70;10.80;;;;;;;;;;4997580;28;20041;-78
2020/12/12 03:11:37;;;;;;;17.95;9.88;;;;;;;;;;4983392;28;20046;-79
2020/12/12 03:14:05;;;;;;;17.60;9.77;;;;;;;;;;4998698;28;20076;-80
2020/12/12 03:16:34;;;;;;;18.02;9.43;;;;;;;;;;5015259;28;20042;-82
2020/12/12 03:19:01;;;;;;;17.35;10.18;;;;;;;;;;5014904;28;20050;-79
2020/12/12 03:21:32;;;;;;;17.95;10.18;;;;;;;;;;4984501;28;20041;-81
2020/12/12 03:23:59;;;;;;;17.00;9.77;;;;;;;;;;4997410;28;20049;-79
2020/12/12 03:26:26;;;;;;;18.67;10.27;;;;;;;;;;4999188;28;20042;-79
2020/12/12 03:28:52;;;;;;;16.23;9.00;;;;;;;;;;4983520;28;20404;-82
2020/12/12 03:31:19;;;;;;;16.25;9.68;;;;;;;;;;4982966;28;20050;-81
2020/12/12 03:33:46;;;;;;;17.70;9.40;;;;;;;;;;4982153;28;20612;-80
2020/12/12 03:36:13;;;;;;;18.27;9.70;;;;;;;;;;4997970;28;20057;-80
2020/12/12 03:38:40;;;;;;;16.08;9.27;;;;;;;;;;5013462;28;20054;-81
2020/12/12 03:41:09;;;;;;;16.42;9.70;;;;;;;;;;4998680;28;20141;-80
2020/12/12 03:43:37;;;;;;;17.08;9.93;;;;;;;;;;5015853;28;20405;-80
2020/12/12 03:46:03;;;;;;;18.70;9.90;;;;;;;;;;4998583;28;20042;-80
2020/12/12 03:48:30;;;;;;;17.17;9.52;;;;;;;;;;5015810;28;20137;-81
2020/12/12 03:50:57;;;;;;;16.17;9.50;;;;;;;;;;4999623;28;20048;-81
2020/12/12 03:53:23;;;;;;;16.08;10.25;;;;;;;;;;4995762;28;20042;-77
2020/12/12 03:55:53;;;;;;;18.48;10.18;;;;;;;;;;4996495;28;20119;-77
2020/12/12 03:58:21;;;;;;;17.17;9.95;;;;;;;;;;4996664;28;20057;-79
2020/12/12 04:00:49;;;;;;;18.40;10.35;;;;;;;;;;5014668;28;20050;-79
2020/12/12 04:03:16;;;;;;;19.63;10.65;;;;;;;;;;5013587;28;20064;-80
2020/12/12 04:05:44;;;;;;;19.85;10.85;;;;;;;;;;4996544;28;20096;-79
2020/12/12 04:08:11;;;;;;;20.00;11.20;;;;;;;;;;4996473;28;20042;-77
2020/12/12 04:10:49;;;;;;;18.52;10.82;;;;;;;;;;4996578;28;20042;-79
2020/12/12 04:13:16;;;;;;;18.33;10.63;;;;;;;;;;4996994;28;20068;-79
2020/12/12 04:15:42;;;;;;;20.77;10.85;;;;;;;;;;4981881;28;20068;-79
2020/12/12 04:18:10;;;;;;;19.48;11.15;;;;;;;;;;5016966;28;20524;-80
2020/12/12 04:20:37;;;;;;;20.95;11.48;;;;;;;;;;5019200;28;20056;-83
2020/12/12 04:23:04;;;;;;;20.75;11.30;;;;;;;;;;4998322;28;20060;-79
2020/12/12 04:25:36;;;;;;;21.05;11.68;;;;;;;;;;4998843;28;20502;-79
2020/12/12 04:28:03;;;;;;;20.42;11.18;;;;;;;;;;4998727;28;20133;-80
2020/12/12 04:30:30;;;;;;;21.33;11.90;;;;;;;;;;5017064;28;20042;-78
2020/12/12 04:32:58;;;;;;;21.50;12.02;;;;;;;;;;5000342;28;20046;-79
2020/12/12 04:35:28;;;;;;;23.33;12.25;;;;;;;;;;4998834;28;20046;-80
2020/12/12 04:37:57;;;;;;;20.98;11.38;;;;;;;;;;4999472;28;20060;-80
2020/12/12 04:40:28;;;;;;;22.98;11.85;;;;;;;;;;4999011;28;20053;-80
2020/12/12 04:43:01;;;;;;;22.67;12.38;;;;;;;;;;4999901;28;20042;-81
2020/12/12 04:45:29;;;;;;;23.70;12.75;;;;;;;;;;4983805;28;20117;-78
2020/12/12 04:47:56;;;;;;;21.67;12.35;;;;;;;;;;4982373;28;20076;-80
2020/12/12 04:50:28;;;;;;;31.15;13.65;;;;;;;;;;4980649;28;20045;-80
2020/12/12 04:52:57;;;;;;;24.02;12.65;;;;;;;;;;4979806;28;20045;-79
2020/12/12 04:55:43;;;;;;;22.63;13.38;;;;;;;;;;4979798;28;20613;-80
2020/12/12 04:58:17;;;;;;;23.10;12.57;;;;;;;;;;5012167;28;20056;-80
2020/12/12 05:00:45;;;;;;;23.60;11.75;;;;;;;;;;5014659;28;20046;-78
2020/12/12 05:03:17;;;;;;;27.55;12.32;;;;;;;;;;4993225;28;20050;-79
2020/12/12 05:05:45;;;;;;;25.10;12.38;;;;;;;;;;4994973;28;20058;-79
2020/12/12 05:08:13;;;;;;;26.48;11.90;;;;;;;;;;4976208;28;20105;-80
2020/12/12 05:10:54;;;;;;;23.83;12.68;;;;;;;;;;4993414;28;20048;-80
2020/12/12 05:13:28;;;;;;;22.88;12.38;;;;;;;;;;4995018;28;20081;-79
2020/12/12 05:15:58;;;;;;;24.58;12.93;;;;;;;;;;4994659;28;20050;-79
2020/12/12 05:18:26;;;;;;;23.52;12.48;;;;;;;;;;4994097;28;20054;-77
2020/12/12 05:20:54;;;;;;;24.58;13.15;;;;;;;;;;4993084;28;20054;-79
2020/12/12 05:23:24;;;;;;;23.05;13.27;;;;;;;;;;4989448;28;20113;-79
2020/12/12 05:25:57;;;;;;;24.17;12.63;;;;;;;;;;5003252;28;20049;-80
2020/12/12 05:28:24;;;;;;;23.25;13.32;;;;;;;;;;4978081;28;20409;-78
2020/12/12 05:30:54;;;;;;;24.45;12.77;;;;;;;;;;4996849;28;20045;-78
2020/12/12 05:33:29;;;;;;;25.33;13.98;;;;;;;;;;4983429;23;20057;-80
2020/12/12 05:36:29;;;;;;;27.52;14.63;;;;;;;;;;4979787;28;20051;-83
2020/12/12 05:39:36;;;;;;;26.00;14.18;;;;;;;;;;4978509;28;20065;-83
2020/12/12 05:42:48;;;;;;;27.17;13.88;;;;;;;;;;4983776;28;20507;-83
2020/12/12 05:45:27;;;;;;;27.17;14.23;;;;;;;;;;4978777;28;20043;-83
2020/12/12 05:48:06;;;;;;;25.10;13.98;;;;;;;;;;4947370;28;20043;-81
2020/12/12 05:50:49;;;;;;;26.67;13.40;;;;;;;;;;4964592;28;20058;-81
2020/12/12 05:53:35;;;;;;;26.33;13.35;;;;;;;;;;4966859;28;20511;-82
2020/12/12 05:56:34;;;;;;;27.20;14.68;;;;;;;;;;4959904;28;20111;-83
2020/12/12 05:59:20;;;;;;;26.42;14.25;;;;;;;;;;4971274;28;20094;-83
2020/12/12 06:02:44;;;;;;;25.52;13.55;;;;;;;;;;4971096;28;20158;-83
2020/12/12 06:05:33;;;;;;;25.63;13.45;;;;;;;;;;4960200;28;20308;-84
2020/12/12 06:08:46;;;;;;;;;;;;;;;;;;;;;
2020/12/12 06:11:23;;;;;;;26.23;14.70;;;;;;;;;;4976019;28;20325;-84
2020/12/12 06:14:28;;;;;;;25.23;13.60;;;;;;;;;;4958819;28;20078;-83
2020/12/12 06:17:06;;;;;;;30.23;15.07;;;;;;;;;;4958700;28;20058;-82
2020/12/12 06:19:56;;;;;;;;;;;;;;;;;;;;;
2020/12/12 06:23:14;;;;;;;31.50;15.57;;;;;;;;;;4960078;28;20046;-82
2020/12/12 06:29:54;;;;;;;31.63;15.35;;;;;;;;;;4937631;28;20077;-83
2020/12/12 06:33:52;;;;;;;27.23;15.05;;;;;;;;;;4972192;28;20415;-82
2020/12/12 06:51:15;;;;;;;26.95;14.30;;;;;;;;;;4903616;28;20136;-83
2020/12/12 06:54:34;;;;;;;28.25;14.68;;;;;;;;;;4932088;29;20099;-82
2020/12/12 06:57:55;;;;;;;24.70;13.85;;;;;;;;;;4935954;29;20044;-82
2020/12/12 07:05:45;;;;;;;24.92;13.05;;;;;;;;;;4865045;29;20049;-85
2020/12/12 07:09:11;;;;;;;23.92;12.80;;;;;;;;;;4826005;29;20105;-84
2020/12/12 07:12:41;;;;;;;27.15;14.18;;;;;;;;;;4846992;29;20053;-84
2020/12/12 07:15:56;;;;;;;26.65;13.00;;;;;;;;;;4795927;29;20533;-81
2020/12/12 07:19:10;;;;;;;;;;;;;;;;;;;;;
2020/12/12 07:25:24;;;;;;;30.02;14.63;;;;;;;;;;4775603;29;20470;-77
2020/12/12 07:27:50;;;;;;;33.70;15.93;;;;;;;;;;4762670;30;20064;-81
2020/12/12 07:30:25;;;;;;;22.67;12.68;;;;;;;;;;4817709;29;20058;-79
2020/12/12 07:32:51;;;;;;;23.70;11.90;;;;;;;;;;4838376;29;20116;-79
2020/12/12 07:35:18;;;;;;;25.27;12.32;;;;;;;;;;4839019;29;20768;-81
2020/12/12 07:37:51;;;;;;;21.95;11.43;;;;;;;;;;4825885;29;20062;-83
2020/12/12 07:40:48;;;;;;;21.40;11.00;;;;;;;;;;4835198;29;20053;-84
2020/12/12 07:44:01;;;;;;;21.52;11.05;;;;;;;;;;4848698;29;20044;-84
2020/12/12 07:46:57;;;;;;;24.92;10.73;;;;;;;;;;4924333;29;20079;-83
2020/12/12 07:50:07;;;;;;;22.25;11.00;;;;;;;;;;4923429;29;20052;-83
2020/12/12 07:53:11;;;;;;;29.40;11.80;;;;;;;;;;4947661;28;20047;-79
2020/12/12 07:56:22;;;;;;;22.25;11.20;;;;;;;;;;4962867;28;20070;-83
2020/12/12 08:02:18;;;;;;;20.58;10.25;;;;;;;;;;4986353;28;20498;-81
2020/12/12 08:05:28;;;;;;;20.08;10.57;;;;;;;;;;4979319;28;20793;-84
2020/12/12 08:09:06;;;;;;;23.73;11.98;;;;;;;;;;4968090;28;20110;-84
2020/12/12 08:11:59;;;;;;;18.83;10.52;;;;;;;;;;4994543;28;20026;-83
2020/12/12 08:15:01;;;;;;;22.95;11.00;;;;;;;;;;4971510;28;20034;-82
2020/12/12 08:18:02;;;;;;;24.17;10.85;;;;;;;;;;4972092;28;20055;-78
2020/12/12 08:21:10;;;;;;;22.35;10.77;;;;;;;;;;4973050;28;20088;-85
2020/12/12 08:24:14;;;;;;;22.20;11.32;;;;;;;;;;4954219;28;20054;-82
2020/12/12 08:27:40;;;;;;;20.98;10.38;;;;;;;;;;4969711;28;20491;-82
2020/12/12 08:31:37;;;;;;;20.90;10.65;;;;;;;;;;4964715;28;20051;-84
2020/12/12 08:34:36;;;;;;;22.58;11.20;;;;;;;;;;4961217;28;20098;-80
2020/12/12 08:37:58;;;;;;;19.60;10.82;;;;;;;;;;4966052;28;20042;-82
2020/12/12 08:41:17;;;;;;;18.30;10.60;;;;;;;;;;4962355;28;20039;-82
2020/12/12 08:44:31;;;;;;;20.30;10.90;;;;;;;;;;4977415;28;20080;-83
2020/12/12 08:47:30;;;;;;;25.75;12.18;;;;;;;;;;4963969;28;20046;-83
2020/12/12 08:50:57;;;;;;;23.05;12.82;;;;;;;;;;4963560;28;20043;-81
2020/12/12 08:54:00;;;;;;;33.10;15.43;;;;;;;;;;4964615;28;20479;-83
2020/12/12 08:57:16;;;;;;;32.97;15.10;;;;;;;;;;4976794;28;20067;-81
2020/12/12 09:00:38;;;;;;;29.80;13.85;;;;;;;;;;4951588;28;20050;-81
2020/12/12 09:03:36;;;;;;;30.63;15.45;;;;;;;;;;4969230;28;20054;-82
2020/12/12 09:06:45;;;;;;;26.63;14.45;;;;;;;;;;4967818;28;20039;-82
2020/12/12 09:09:29;;;;;;;24.30;12.98;;;;;;;;;;4982228;28;20043;-83
2020/12/12 09:12:18;;;;;;;25.10;13.15;;;;;;;;;;4947155;28;20061;-82
2020/12/12 09:14:57;;;;;;;24.83;12.77;;;;;;;;;;4972909;28;20097;-81
2020/12/12 09:17:42;;;;;;;20.95;12.02;;;;;;;;;;4959748;28;20053;-80
2020/12/12 09:20:21;;;;;;;26.20;13.48;;;;;;;;;;4967333;28;20047;-81
2020/12/12 09:23:04;;;;;;;25.70;13.93;;;;;;;;;;4959713;28;20082;-81
2020/12/12 09:25:37;;;;;;;25.48;13.57;;;;;;;;;;4971143;28;20403;-81
2020/12/12 09:28:08;;;;;;;23.52;13.32;;;;;;;;;;4972693;28;20068;-80
2020/12/12 09:30:40;;;;;;;25.65;13.80;;;;;;;;;;4958813;28;20562;-81
2020/12/12 09:33:15;;;;;;;26.05;13.75;;;;;;;;;;4951731;28;20452;-82
2020/12/12 09:35:56;;;;;;;24.00;13.70;;;;;;;;;;4952376;29;20442;-81
2020/12/12 09:42:28;;;;;;;27.65;13.88;;;;;;;;;;4957958;29;20146;-81
2020/12/12 09:45:13;;;;;;;25.65;13.45;;;;;;;;;;4944380;29;20047;-82
2020/12/12 09:48:41;;;;;;;23.48;13.88;;;;;;;;;;4957708;29;20058;-83
2020/12/12 09:55:34;;;;;;;28.08;14.88;;;;;;;;;;4960880;29;20062;-83
2020/12/12 09:58:18;;;;;;;27.90;14.18;;;;;;;;;;4948351;29;20058;-82
2020/12/12 10:01:10;;;;;;;29.73;16.00;;;;;;;;;;4935133;29;20047;-83
2020/12/12 10:03:56;;;;;;;23.92;14.07;;;;;;;;;;4977489;28;20106;-85
2020/12/12 10:06:50;;;;;;;25.33;12.95;;;;;;;;;;4965296;29;20051;-83
2020/12/12 10:09:55;;;;;;;26.23;14.02;;;;;;;;;;4947167;29;20043;-83
2020/12/12 10:13:02;;;;;;;26.08;13.75;;;;;;;;;;4968185;28;20039;-83
2020/12/12 10:16:12;;;;;;;;;;;;;;;;;;;;;
2020/12/12 10:19:36;;;;;;;24.42;13.07;;;;;;;;;;4946763;29;20055;-82
2020/12/12 10:22:54;;;;;;;24.58;13.32;;;;;;;;;;4978425;28;20058;-83
2020/12/12 10:26:04;;;;;;;26.65;13.82;;;;;;;;;;4943447;29;20096;-84
2020/12/12 10:29:03;;;;;;;26.20;13.88;;;;;;;;;;4925704;29;20043;-83
2020/12/12 10:32:18;;;;;;;28.50;15.13;;;;;;;;;;4938754;29;20051;-82
2020/12/12 10:35:36;;;;;;;24.83;13.80;;;;;;;;;;4920435;29;20058;-79
2020/12/12 10:38:21;;;;;;;24.58;13.13;;;;;;;;;;4941764;29;20539;-79
2020/12/12 10:41:28;;;;;;;24.38;13.05;;;;;;;;;;4926828;29;20468;-83
2020/12/12 10:44:20;;;;;;;27.48;13.27;;;;;;;;;;5421484;23;20506;-85
2020/12/12 10:47:23;;;;;;;23.38;12.18;;;;;;;;;;4916867;29;20209;-82
2020/12/12 10:50:29;;;;;;;23.20;11.88;;;;;;;;;;4897921;29;20508;-81
2020/12/12 10:53:21;;;;;;;23.15;12.63;;;;;;;;;;4895238;29;20047;-84
2020/12/12 10:56:18;;;;;;;26.98;13.45;;;;;;;;;;4911167;29;20044;-84
2020/12/12 10:59:12;;;;;;;22.58;11.80;;;;;;;;;;4934015;29;20052;-82
2020/12/12 11:02:28;;;;;;;22.17;12.43;;;;;;;;;;4917298;29;20134;-84
2020/12/12 11:05:18;;;;;;;21.85;11.57;;;;;;;;;;4933582;29;20055;-82
2020/12/12 11:08:21;;;;;;;20.45;11.38;;;;;;;;;;4910189;29;20074;-78
2020/12/12 11:11:05;;;;;;;21.00;11.70;;;;;;;;;;4938062;28;20450;-84
2020/12/12 11:14:01;;;;;;;22.20;11.98;;;;;;;;;;4965064;29;20047;-83
2020/12/12 11:17:01;;;;;;;;;;;;;;;;;;;;;
2020/12/12 11:20:03;;;;;;;20.23;11.05;;;;;;;;;;4967134;28;20043;-82
2020/12/12 11:23:28;;;;;;;21.10;11.65;;;;;;;;;;4965048;28;20038;-84
2020/12/12 11:26:39;;;;;;;;;;;;;;;;;;;;;
2020/12/12 11:30:07;;;;;;;20.10;11.18;;;;;;;;;;4974220;28;20085;-84
2020/12/12 11:32:56;;;;;;;21.10;11.98;;;;;;;;;;5000336;23;20891;-83
2020/12/12 11:35:37;;;;;;;21.88;11.65;;;;;;;;;;4994782;28;20044;-84
2020/12/12 11:40:54;;;;;;;25.42;12.55;;;;;;;;;;4997431;28;20049;-83
2020/12/12 11:48:37;;;;;;;21.70;11.75;;;;;;;;;;5003286;28;20042;-84
2020/12/12 11:51:04;;;;;;;21.75;11.65;;;;;;;;;;5003655;28;20042;-84
2020/12/12 11:53:30;;;;;;;23.80;12.20;;;;;;;;;;5003992;28;20056;-85
2020/12/12 11:55:56;;;;;;;22.80;11.65;;;;;;;;;;4990912;28;20153;-84
2020/12/12 11:58:22;;;;;;;21.98;11.60;;;;;;;;;;4980121;28;20068;-84
2020/12/12 12:00:49;;;;;;;23.50;11.50;;;;;;;;;;4985147;28;20096;-85
2020/12/12 12:03:15;;;;;;;21.02;11.15;;;;;;;;;;4997964;28;20387;-84
2020/12/12 12:05:42;;;;;;;20.38;11.25;;;;;;;;;;5015716;28;20052;-84
2020/12/12 12:08:17;;;;;;;20.27;11.13;;;;;;;;;;5007560;28;20078;-86
2020/12/12 12:10:53;;;;;;;20.25;10.75;;;;;;;;;;5021082;28;20206;-84
2020/12/12 12:13:19;;;;;;;19.80;10.55;;;;;;;;;;4984875;28;20042;-84
2020/12/12 12:15:47;;;;;;;19.38;10.32;;;;;;;;;;4997089;28;20050;-84
2020/12/12 12:18:29;;;;;;;18.33;9.90;;;;;;;;;;5022635;28;20137;-84
2020/12/12 12:20:57;;;;;;;19.17;10.20;;;;;;;;;;5019386;28;20026;-84
2020/12/12 12:23:31;;;;;;;22.63;11.95;;;;;;;;;;4984761;28;20524;-84
2020/12/12 12:25:58;;;;;;;20.48;10.93;;;;;;;;;;5003826;28;20088;-83
2020/12/12 12:28:27;;;;;;;20.25;11.05;;;;;;;;;;5005084;28;20054;-84
2020/12/12 12:30:54;;;;;;;18.38;10.40;;;;;;;;;;5012803;28;20050;-85
2020/12/12 12:33:20;;;;;;;25.92;12.98;;;;;;;;;;5015222;28;20050;-85
2020/12/12 12:35:46;;;;;;;19.85;11.27;;;;;;;;;;5014307;28;20521;-85
2020/12/12 12:38:13;;;;;;;19.92;10.93;;;;;;;;;;4996544;28;20041;-85
2020/12/12 12:40:39;;;;;;;18.80;10.40;;;;;;;;;;5008582;28;20077;-85
2020/12/12 12:43:06;;;;;;;22.42;10.63;;;;;;;;;;5005816;28;20101;-87
2020/12/12 12:45:32;;;;;;;20.15;10.50;;;;;;;;;;5021483;28;20045;-85
2020/12/12 12:47:59;;;;;;;19.45;10.57;;;;;;;;;;5004379;28;20042;-85
2020/12/12 12:50:35;;;;;;;22.77;11.25;;;;;;;;;;5000094;28;20050;-85
2020/12/12 12:53:03;;;;;;;19.95;10.25;;;;;;;;;;4981206;28;20136;-85
2020/12/12 12:55:30;;;;;;;18.77;9.38;;;;;;;;;;5013985;28;20404;-86
2020/12/12 12:57:58;;;;;;;17.67;9.75;;;;;;;;;;5004431;28;20072;-85
2020/12/12 13:00:25;;;;;;;18.95;9.50;;;;;;;;;;4996617;28;20054;-85
2020/12/12 13:02:51;;;;;;;18.98;9.30;;;;;;;;;;4995472;28;20048;-85
2020/12/12 13:05:17;;;;;;;19.27;9.85;;;;;;;;;;4996435;28;20092;-85
2020/12/12 13:07:43;;;;;;;16.70;9.32;;;;;;;;;;4995483;28;20046;-86
2020/12/12 13:10:25;;;;;;;17.75;8.85;;;;;;;;;;5003687;28;20033;-84
2020/12/12 13:12:51;;;;;;;17.13;9.80;;;;;;;;;;5001325;28;20053;-84
2020/12/12 13:15:24;;;;;;;16.85;8.80;;;;;;;;;;5001935;28;20104;-85
2020/12/12 13:17:50;;;;;;;14.88;8.85;;;;;;;;;;5000138;28;20240;-85
2020/12/12 13:20:33;;;;;;;18.05;9.57;;;;;;;;;;5001192;28;20049;-86
2020/12/12 13:22:59;;;;;;;18.08;9.38;;;;;;;;;;5002299;28;20529;-85
2020/12/12 13:25:26;;;;;;;20.90;10.95;;;;;;;;;;4983558;28;20046;-85
2020/12/12 13:28:35;;;;;;;18.05;9.50;;;;;;;;;;5011795;28;20046;-86
2020/12/12 13:31:03;;;;;;;;;;;;;;;;;;5016927;28;20046;-85
2020/12/12 13:33:44;;;;;;;15.68;8.70;;;;;;;;;;4997927;28;19932;-85
2020/12/12 13:36:10;;;;;;;16.25;9.25;;;;;;;;;;4982392;28;20058;-85
2020/12/12 13:38:37;;;;;;;15.00;8.30;;;;;;;;;;4982107;28;20153;-86
2020/12/12 13:41:09;;;;;;;17.17;9.18;;;;;;;;;;5000268;28;20056;-85
2020/12/12 13:43:36;;;;;;;16.10;9.35;;;;;;;;;;4996091;28;20046;-86
2020/12/12 13:46:04;;;;;;;20.30;9.15;;;;;;;;;;4983921;28;20076;-84
2020/12/12 13:48:31;;;;;;;18.98;9.52;;;;;;;;;;4982648;28;20052;-84
2020/12/12 13:50:57;;;;;;;19.25;10.02;;;;;;;;;;4999179;28;20186;-85
2020/12/12 13:53:23;;;;;;;22.73;11.50;;;;;;;;;;4965993;28;20076;-85
2020/12/12 13:55:49;;;;;;;19.60;10.88;;;;;;;;;;4991383;28;20053;-83
2020/12/12 13:58:16;;;;;;;18.25;10.52;;;;;;;;;;5017178;28;20108;-84
2020/12/12 14:00:42;;;;;;;17.73;9.65;;;;;;;;;;4997934;28;20042;-83
2020/12/12 14:03:08;;;;;;;18.23;10.20;;;;;;;;;;4999851;28;20060;-83
2020/12/12 14:05:39;;;;;;;19.27;10.02;;;;;;;;;;4996035;28;20052;-83
2020/12/12 14:08:07;;;;;;;20.30;10.82;;;;;;;;;;5027020;28;20046;-83
2020/12/12 14:23:59;;;;;;;25.48;11.75;;;;;;;;;;4997986;28;20038;-82
2020/12/12 14:29:10;;;;;;;23.02;11.00;;;;;;;;;;5018698;28;20121;-80
2020/12/12 14:31:36;;;;;;;23.17;11.23;;;;;;;;;;4990857;28;20041;-80
2020/12/12 14:34:03;;;;;;;23.95;11.88;;;;;;;;;;5014168;28;20061;-84
2020/12/12 14:36:30;;;;;;;24.67;12.02;;;;;;;;;;5019821;28;20133;-80
2020/12/12 14:38:56;;;;;;;26.67;13.05;;;;;;;;;;5018395;28;20529;-82
2020/12/12 14:41:23;;;;;;;25.60;12.40;;;;;;;;;;5010925;28;20096;-81
2020/12/12 14:43:50;;;;;;;29.70;12.77;;;;;;;;;;5003278;28;20038;-86
2020/12/12 14:46:32;;;;;;;25.88;13.20;;;;;;;;;;5004605;28;20045;-85
2020/12/12 14:48:58;;;;;;;22.50;12.20;;;;;;;;;;4972756;28;20060;-87
2020/12/12 14:51:25;;;;;;;27.30;13.10;;;;;;;;;;5003560;28;20049;-86
2020/12/12 14:53:51;;;;;;;28.80;14.85;;;;;;;;;;5001232;28;20489;-85
2020/12/12 14:56:22;;;;;;;26.27;13.02;;;;;;;;;;4998263;28;20544;-85
2020/12/12 14:58:48;;;;;;;22.92;12.15;;;;;;;;;;4980996;28;20113;-84
2020/12/12 15:01:17;;;;;;;27.42;12.27;;;;;;;;;;4998085;28;20768;-83
2020/12/12 15:03:43;;;;;;;27.65;13.00;;;;;;;;;;4997730;28;20043;-83
2020/12/12 15:06:10;;;;;;;30.15;14.07;;;;;;;;;;5016349;28;20504;-82
2020/12/12 15:08:39;;;;;;;30.75;16.10;;;;;;;;;;4968924;28;20454;-82
2020/12/12 15:11:05;;;;;;;26.95;14.20;;;;;;;;;;4996355;28;20042;-83
2020/12/12 15:13:31;;;;;;;30.02;14.35;;;;;;;;;;5003928;28;20053;-83
2020/12/12 15:15:58;;;;;;;24.63;13.20;;;;;;;;;;5015021;28;20646;-83
2020/12/12 15:18:25;;;;;;;25.63;12.63;;;;;;;;;;4997602;28;20128;-81
2020/12/12 15:20:52;;;;;;;24.30;12.85;;;;;;;;;;5014635;28;20092;-82
2020/12/12 15:23:18;;;;;;;24.33;13.15;;;;;;;;;;5012129;28;20470;-82
2020/12/12 15:25:45;;;;;;;27.35;12.57;;;;;;;;;;4994508;28;20045;-83
2020/12/12 15:28:11;;;;;;;21.27;12.15;;;;;;;;;;4996659;28;20413;-82
2020/12/12 15:30:39;;;;;;;24.42;12.85;;;;;;;;;;5015413;28;20104;-82
2020/12/12 15:33:05;;;;;;;28.48;14.88;;;;;;;;;;5025289;28;20025;-82
2020/12/12 15:35:32;;;;;;;30.25;16.00;;;;;;;;;;5002343;28;20050;-82
2020/12/12 15:38:03;;;;;;;33.42;16.83;;;;;;;;;;5011763;28;20084;-83
2020/12/12 15:40:30;;;;;;;29.58;14.95;;;;;;;;;;5016125;28;20061;-82
2020/12/12 15:42:58;;;;;;;27.20;14.40;;;;;;;;;;5004798;28;20084;-82
2020/12/12 15:45:27;;;;;;;29.02;14.27;;;;;;;;;;5017711;28;20046;-82
2020/12/12 15:48:02;;;;;;;27.63;14.23;;;;;;;;;;5018884;28;20049;-82
2020/12/12 15:50:28;;;;;;;30.10;14.38;;;;;;;;;;5002969;28;20512;-81
2020/12/12 15:52:55;;;;;;;27.58;13.75;;;;;;;;;;5003436;28;20074;-82
2020/12/12 15:55:21;;;;;;;23.85;13.23;;;;;;;;;;5015311;28;20046;-85
2020/12/12 15:57:47;;;;;;;25.33;13.88;;;;;;;;;;5014781;28;20121;-83
2020/12/12 16:00:13;;;;;;;24.88;13.32;;;;;;;;;;5016082;28;20387;-84
2020/12/12 16:02:39;;;;;;;28.77;14.77;;;;;;;;;;4997470;28;20081;-83
2020/12/12 16:05:06;;;;;;;28.85;14.65;;;;;;;;;;4999076;28;20049;-83
2020/12/12 16:07:32;;;;;;;29.25;14.35;;;;;;;;;;5016093;28;20052;-83
2020/12/12 16:09:59;;;;;;;29.58;15.43;;;;;;;;;;4987472;28;20046;-84
2020/12/12 16:12:27;;;;;;;27.80;13.80;;;;;;;;;;4998023;28;20052;-81
2020/12/12 16:14:53;;;;;;;27.48;14.35;;;;;;;;;;5017674;28;20053;-82
2020/12/12 16:17:19;;;;;;;27.10;13.77;;;;;;;;;;5016121;28;20050;-84
2020/12/12 16:19:46;;;;;;;30.02;15.07;;;;;;;;;;5020172;28;20066;-81
2020/12/12 16:22:13;;;;;;;27.48;14.15;;;;;;;;;;5024505;28;20113;-82
2020/12/12 16:24:39;;;;;;;34.20;16.85;;;;;;;;;;5014218;28;20070;-82
2020/12/12 16:27:08;;;;;;;35.28;14.88;;;;;;;;;;5011715;28;20062;-82
2020/12/12 16:29:35;;;;;;;34.10;13.82;;;;;;;;;;4988542;28;20050;-84